createdAt,value
2018-02-15T00:00:45.705Z,1006.72
2018-02-15T00:01:45.633Z,1006.71
2018-02-15T00:02:45.705Z,1006.69
2018-02-15T00:03:45.631Z,1006.71
2018-02-15T00:04:45.706Z,1006.68
2018-02-15T00:05:45.638Z,1006.64
2018-02-15T00:06:45.722Z,1006.62
2018-02-15T00:07:45.633Z,1006.61
2018-02-15T00:08:45.707Z,1006.62
2018-02-15T00:09:45.649Z,1006.57
2018-02-15T00:10:45.706Z,1006.57
2018-02-15T00:11:45.640Z,1006.62
2018-02-15T00:12:45.710Z,1006.63
2018-02-15T00:13:45.668Z,1006.60
2018-02-15T00:14:45.623Z,1006.59
2018-02-15T00:15:45.648Z,1006.61
2018-02-15T00:16:45.648Z,1006.57
2018-02-15T00:17:45.651Z,1006.55
2018-02-15T00:18:45.655Z,1006.53
2018-02-15T00:19:45.677Z,1006.54
2018-02-15T00:20:45.652Z,1006.53
2018-02-15T00:21:45.652Z,1006.49
2018-02-15T00:22:45.653Z,1006.50
2018-02-15T00:23:45.728Z,1006.50
2018-02-15T00:24:45.654Z,1006.51
2018-02-15T00:25:45.661Z,1006.53
2018-02-15T00:26:45.710Z,1006.56
2018-02-15T00:27:45.606Z,1006.55
2018-02-15T00:28:45.622Z,1006.53
2018-02-15T00:29:45.600Z,1006.52
2018-02-15T00:30:45.721Z,1006.52
2018-02-15T00:31:45.674Z,1006.45
2018-02-15T00:32:45.671Z,1006.43
2018-02-15T00:33:45.706Z,1006.44
2018-02-15T00:34:45.682Z,1006.37
2018-02-15T00:35:45.768Z,1006.34
2018-02-15T00:36:45.691Z,1006.24
2018-02-15T00:37:45.730Z,1006.26
2018-02-15T00:38:45.703Z,1006.25
2018-02-15T00:39:45.769Z,1006.22
2018-02-15T00:40:45.642Z,1006.23
2018-02-15T00:41:45.796Z,1006.24
2018-02-15T00:42:45.732Z,1006.20
2018-02-15T00:43:45.796Z,1006.20
2018-02-15T00:44:45.677Z,1006.18
2018-02-15T00:45:45.696Z,1006.15
2018-02-15T00:46:45.767Z,1006.11
2018-02-15T00:47:45.774Z,1006.13
2018-02-15T00:48:45.703Z,1006.08
2018-02-15T00:49:45.715Z,1006.08
2018-02-15T00:50:45.760Z,1006.10
2018-02-15T00:51:45.678Z,1006.12
2018-02-15T00:52:45.745Z,1006.10
2018-02-15T00:53:45.750Z,1006.13
2018-02-15T00:54:45.771Z,1006.13
2018-02-15T00:55:45.675Z,1006.12
2018-02-15T00:56:45.674Z,1006.14
2018-02-15T00:57:45.675Z,1006.07
2018-02-15T00:58:45.679Z,1006.13
2018-02-15T00:59:45.674Z,1006.16
2018-02-15T01:00:45.751Z,1006.18
2018-02-15T01:01:45.751Z,1006.23
2018-02-15T01:02:45.680Z,1006.31
2018-02-15T01:03:45.769Z,1006.33
2018-02-15T01:04:45.679Z,1006.35
2018-02-15T01:05:45.713Z,1006.36
2018-02-15T01:06:45.716Z,1006.31
2018-02-15T01:07:45.720Z,1006.34
2018-02-15T01:08:45.778Z,1006.32
2018-02-15T01:09:45.751Z,1006.31
2018-02-15T01:10:45.789Z,1006.35
2018-02-15T01:11:45.790Z,1006.33
2018-02-15T01:12:45.725Z,1006.32
2018-02-15T01:13:45.750Z,1006.30
2018-02-15T01:14:45.679Z,1006.35
2018-02-15T01:15:45.761Z,1006.35
2018-02-15T01:16:45.757Z,1006.36
2018-02-15T01:17:45.713Z,1006.42
2018-02-15T01:18:45.688Z,1006.40
2018-02-15T01:19:45.762Z,1006.43
2018-02-15T01:20:45.690Z,1006.45
2018-02-15T01:21:45.690Z,1006.39
2018-02-15T01:22:45.693Z,1006.43
2018-02-15T01:23:45.776Z,1006.48
2018-02-15T01:24:45.769Z,1006.47
2018-02-15T01:25:45.680Z,1006.51
2018-02-15T01:26:45.758Z,1006.52
2018-02-15T01:27:45.686Z,1006.54
2018-02-15T01:28:45.755Z,1006.51
2018-02-15T01:29:45.685Z,1006.50
2018-02-15T01:30:45.756Z,1006.49
2018-02-15T01:31:45.688Z,1006.47
2018-02-15T01:32:45.762Z,1006.43
2018-02-15T01:33:45.760Z,1006.44
2018-02-15T01:34:45.686Z,1006.34
2018-02-15T01:35:45.698Z,1006.37
2018-02-15T01:36:45.697Z,1006.40
2018-02-15T01:37:45.730Z,1006.36
2018-02-15T01:38:45.772Z,1006.32
2018-02-15T01:39:45.776Z,1006.30
2018-02-15T01:40:45.742Z,1006.22
2018-02-15T01:41:45.703Z,1006.23
2018-02-15T01:42:45.776Z,1006.23
2018-02-15T01:43:45.786Z,1006.26
2018-02-15T01:44:45.706Z,1006.30
2018-02-15T01:45:45.714Z,1006.26
2018-02-15T01:46:45.693Z,1006.24
2018-02-15T01:47:45.813Z,1006.26
2018-02-15T01:48:45.791Z,1006.18
2018-02-15T01:49:45.749Z,1006.14
2018-02-15T01:50:45.743Z,1006.06
2018-02-15T01:51:45.747Z,1006.06
2018-02-15T01:52:45.810Z,1006.04
2018-02-15T01:53:45.734Z,1006.03
2018-02-15T01:54:45.717Z,1005.98
2018-02-15T01:55:45.714Z,1005.94
2018-02-15T01:56:45.710Z,1005.92
2018-02-15T01:57:45.781Z,1005.83
2018-02-15T01:58:45.786Z,1005.78
2018-02-15T01:59:45.751Z,1005.69
2018-02-15T02:00:45.786Z,1005.66
2018-02-15T02:01:45.714Z,1005.67
2018-02-15T02:02:45.712Z,1005.69
2018-02-15T02:03:45.716Z,1005.75
2018-02-15T02:04:45.790Z,1005.77
2018-02-15T02:05:45.789Z,1005.75
2018-02-15T02:06:45.684Z,1005.72
2018-02-15T02:07:45.722Z,1005.68
2018-02-15T02:08:45.790Z,1005.71
2018-02-15T02:09:45.795Z,1005.66
2018-02-15T02:10:45.725Z,1005.65
2018-02-15T02:11:45.720Z,1005.71
2018-02-15T02:12:45.792Z,1005.72
2018-02-15T02:13:45.720Z,1005.72
2018-02-15T02:14:45.792Z,1005.71
2018-02-15T02:15:45.731Z,1005.72
2018-02-15T02:16:45.733Z,1005.74
2018-02-15T02:17:45.773Z,1005.74
2018-02-15T02:18:45.792Z,1005.73
2018-02-15T02:19:45.797Z,1005.69
2018-02-15T02:20:45.792Z,1005.68
2018-02-15T02:21:45.797Z,1005.66
2018-02-15T02:22:45.824Z,1005.59
2018-02-15T02:23:45.858Z,1005.55
2018-02-15T02:24:45.829Z,1005.52
2018-02-15T02:25:45.740Z,1005.48
2018-02-15T02:26:45.827Z,1005.49
2018-02-15T02:27:45.802Z,1005.44
2018-02-15T02:28:45.795Z,1005.45
2018-02-15T02:29:45.835Z,1005.41
2018-02-15T02:30:45.760Z,1005.37
2018-02-15T02:31:45.799Z,1005.29
2018-02-15T02:32:45.839Z,1005.28
2018-02-15T02:33:45.827Z,1005.21
2018-02-15T02:34:45.798Z,1005.19
2018-02-15T02:35:45.826Z,1005.16
2018-02-15T02:36:45.724Z,1005.20
2018-02-15T02:37:45.834Z,1005.21
2018-02-15T02:38:45.767Z,1005.19
2018-02-15T02:39:45.808Z,1005.13
2018-02-15T02:40:45.745Z,1005.15
2018-02-15T02:41:45.802Z,1005.07
2018-02-15T02:42:45.830Z,1005.05
2018-02-15T02:43:45.807Z,1005.07
2018-02-15T02:44:45.806Z,1005.10
2018-02-15T02:45:45.779Z,1005.08
2018-02-15T02:46:45.818Z,1005.09
2018-02-15T02:47:45.807Z,1005.11
2018-02-15T02:48:45.751Z,1005.08
2018-02-15T02:49:45.834Z,1005.12
2018-02-15T02:50:45.729Z,1005.10
2018-02-15T02:51:45.770Z,1005.06
2018-02-15T02:52:45.847Z,1005.09
2018-02-15T02:53:45.811Z,1005.08
2018-02-15T02:54:45.736Z,1005.08
2018-02-15T02:55:45.747Z,1005.10
2018-02-15T02:56:45.844Z,1005.09
2018-02-15T02:57:45.748Z,1005.07
2018-02-15T02:58:45.847Z,1005.05
2018-02-15T02:59:45.825Z,1005.05
2018-02-15T03:00:45.761Z,1005.03
2018-02-15T03:01:45.811Z,1005.07
2018-02-15T03:02:45.821Z,1005.12
2018-02-15T03:03:45.833Z,1005.13
2018-02-15T03:04:45.826Z,1005.13
2018-02-15T03:05:45.758Z,1005.13
2018-02-15T03:06:45.740Z,1005.16
2018-02-15T03:07:45.793Z,1005.19
2018-02-15T03:08:45.856Z,1005.13
2018-02-15T03:09:45.850Z,1005.11
2018-02-15T03:10:45.826Z,1005.17
2018-02-15T03:11:45.738Z,1005.19
2018-02-15T03:12:45.864Z,1005.15
2018-02-15T03:13:45.793Z,1005.17
2018-02-15T03:14:45.884Z,1005.19
2018-02-15T03:15:45.855Z,1005.18
2018-02-15T03:16:45.761Z,1005.12
2018-02-15T03:17:45.764Z,1005.12
2018-02-15T03:18:45.835Z,1005.04
2018-02-15T03:19:45.763Z,1005.00
2018-02-15T03:20:45.827Z,1004.91
2018-02-15T03:21:45.823Z,1004.86
2018-02-15T03:22:45.880Z,1004.80
2018-02-15T03:23:45.837Z,1004.76
2018-02-15T03:24:45.840Z,1004.80
2018-02-15T03:25:45.824Z,1004.78
2018-02-15T03:26:45.825Z,1004.78
2018-02-15T03:27:45.827Z,1004.82
2018-02-15T03:28:45.827Z,1004.83
2018-02-15T03:29:45.753Z,1004.82
2018-02-15T03:30:45.755Z,1004.81
2018-02-15T03:31:45.799Z,1004.81
2018-02-15T03:32:45.828Z,1004.78
2018-02-15T03:33:45.752Z,1004.79
2018-02-15T03:34:45.759Z,1004.79
2018-02-15T03:35:45.875Z,1004.82
2018-02-15T03:36:45.842Z,1004.81
2018-02-15T03:37:45.878Z,1004.86
2018-02-15T03:38:45.871Z,1004.87
2018-02-15T03:39:45.779Z,1004.83
2018-02-15T03:40:45.865Z,1004.89
2018-02-15T03:41:45.840Z,1004.88
2018-02-15T03:42:45.868Z,1004.84
2018-02-15T03:43:45.778Z,1004.84
2018-02-15T03:44:45.840Z,1004.81
2018-02-15T03:45:45.804Z,1004.79
2018-02-15T03:46:45.908Z,1004.80
2018-02-15T03:47:45.768Z,1004.81
2018-02-15T03:48:45.857Z,1004.77
2018-02-15T03:49:45.765Z,1004.73
2018-02-15T03:50:45.851Z,1004.76
2018-02-15T03:51:45.845Z,1004.74
2018-02-15T03:52:45.852Z,1004.71
2018-02-15T03:53:45.787Z,1004.70
2018-02-15T03:54:45.852Z,1004.66
2018-02-15T03:55:45.755Z,1004.67
2018-02-15T03:56:45.907Z,1004.66
2018-02-15T03:57:45.849Z,1004.67
2018-02-15T03:58:45.822Z,1004.64
2018-02-15T03:59:45.877Z,1004.64
2018-02-15T04:00:45.829Z,1004.63
2018-02-15T04:01:45.886Z,1004.60
2018-02-15T04:02:45.825Z,1004.63
2018-02-15T04:03:45.877Z,1004.60
2018-02-15T04:04:45.960Z,1004.58
2018-02-15T04:05:45.855Z,1004.56
2018-02-15T04:06:45.784Z,1004.52
2018-02-15T04:07:45.855Z,1004.51
2018-02-15T04:08:45.819Z,1004.52
2018-02-15T04:09:45.821Z,1004.54
2018-02-15T04:10:45.883Z,1004.50
2018-02-15T04:11:45.892Z,1004.50
2018-02-15T04:12:45.834Z,1004.50
2018-02-15T04:13:45.827Z,1004.45
2018-02-15T04:14:45.860Z,1004.48
2018-02-15T04:15:45.778Z,1004.46
2018-02-15T04:16:45.891Z,1004.46
2018-02-15T04:17:45.826Z,1004.42
2018-02-15T04:18:45.862Z,1004.41
2018-02-15T04:19:45.872Z,1004.41
2018-02-15T04:20:45.785Z,1004.39
2018-02-15T04:21:45.870Z,1004.35
2018-02-15T04:22:45.864Z,1004.39
2018-02-15T04:23:45.867Z,1004.39
2018-02-15T04:24:45.871Z,1004.40
2018-02-15T04:25:45.857Z,1004.43
2018-02-15T04:26:45.847Z,1004.42
2018-02-15T04:27:45.810Z,1004.47
2018-02-15T04:28:45.848Z,1004.47
2018-02-15T04:29:45.767Z,1004.45
2018-02-15T04:30:45.764Z,1004.50
2018-02-15T04:31:45.830Z,1004.55
2018-02-15T04:32:45.776Z,1004.48
2018-02-15T04:33:45.831Z,1004.51
2018-02-15T04:34:45.860Z,1004.49
2018-02-15T04:35:45.776Z,1004.47
2018-02-15T04:36:45.906Z,1004.46
2018-02-15T04:37:45.899Z,1004.47
2018-02-15T04:38:45.877Z,1004.41
2018-02-15T04:39:45.898Z,1004.42
2018-02-15T04:40:45.794Z,1004.41
2018-02-15T04:41:45.903Z,1004.41
2018-02-15T04:42:45.875Z,1004.42
2018-02-15T04:43:45.822Z,1004.46
2018-02-15T04:44:45.845Z,1004.50
2018-02-15T04:45:45.879Z,1004.51
2018-02-15T04:46:45.847Z,1004.53
2018-02-15T04:47:45.854Z,1004.48
2018-02-15T04:48:45.907Z,1004.47
2018-02-15T04:49:45.824Z,1004.47
2018-02-15T04:50:46.020Z,1004.46
2018-02-15T04:51:45.884Z,1004.45
2018-02-15T04:52:45.801Z,1004.41
2018-02-15T04:53:45.887Z,1004.36
2018-02-15T04:54:45.792Z,1004.35
2018-02-15T04:55:45.876Z,1004.33
2018-02-15T04:56:45.881Z,1004.31
2018-02-15T04:57:45.880Z,1004.26
2018-02-15T04:58:45.804Z,1004.24
2018-02-15T04:59:45.880Z,1004.21
2018-02-15T05:00:45.815Z,1004.21
2018-02-15T05:01:45.810Z,1004.19
2018-02-15T05:02:45.882Z,1004.17
2018-02-15T05:03:45.815Z,1004.20
2018-02-15T05:04:45.797Z,1004.23
2018-02-15T05:05:45.794Z,1004.19
2018-02-15T05:06:45.796Z,1004.21
2018-02-15T05:07:45.890Z,1004.17
2018-02-15T05:08:45.874Z,1004.24
2018-02-15T05:09:45.817Z,1004.20
2018-02-15T05:10:45.923Z,1004.23
2018-02-15T05:11:45.920Z,1004.20
2018-02-15T05:12:45.931Z,1004.19
2018-02-15T05:13:45.873Z,1004.21
2018-02-15T05:14:45.836Z,1004.20
2018-02-15T05:15:45.816Z,1004.20
2018-02-15T05:16:45.900Z,1004.23
2018-02-15T05:17:45.865Z,1004.24
2018-02-15T05:18:45.919Z,1004.20
2018-02-15T05:19:45.926Z,1004.22
2018-02-15T05:20:45.909Z,1004.18
2018-02-15T05:21:45.900Z,1004.15
2018-02-15T05:22:45.923Z,1004.08
2018-02-15T05:23:45.822Z,1004.07
2018-02-15T05:24:45.802Z,1004.01
2018-02-15T05:25:45.807Z,1003.98
2018-02-15T05:26:45.843Z,1003.97
2018-02-15T05:27:45.929Z,1003.93
2018-02-15T05:28:45.962Z,1003.90
2018-02-15T05:29:45.871Z,1003.90
2018-02-15T05:30:45.946Z,1003.94
2018-02-15T05:31:45.913Z,1003.93
2018-02-15T05:32:45.941Z,1004.01
2018-02-15T05:33:45.907Z,1003.95
2018-02-15T05:34:45.975Z,1003.91
2018-02-15T05:35:45.881Z,1003.96
2018-02-15T05:36:45.847Z,1003.92
2018-02-15T05:37:45.830Z,1003.93
2018-02-15T05:38:45.832Z,1003.95
2018-02-15T05:39:45.910Z,1003.97
2018-02-15T05:40:45.812Z,1003.94
2018-02-15T05:41:45.916Z,1003.94
2018-02-15T05:42:45.836Z,1003.89
2018-02-15T05:43:45.852Z,1003.83
2018-02-15T05:44:45.943Z,1003.81
2018-02-15T05:45:45.936Z,1003.80
2018-02-15T05:46:45.942Z,1003.84
2018-02-15T05:47:45.954Z,1003.80
2018-02-15T05:48:45.915Z,1003.86
2018-02-15T05:49:45.900Z,1003.86
2018-02-15T05:50:45.947Z,1003.81
2018-02-15T05:51:45.934Z,1003.83
2018-02-15T05:52:45.825Z,1003.79
2018-02-15T05:53:45.883Z,1003.77
2018-02-15T05:54:45.918Z,1003.72
2018-02-15T05:55:45.922Z,1003.74
2018-02-15T05:56:45.792Z,1003.71
2018-02-15T05:57:45.905Z,1003.65
2018-02-15T05:58:45.878Z,1003.62
2018-02-15T05:59:45.815Z,1003.63
2018-02-15T06:00:45.857Z,1003.60
2018-02-15T06:01:45.861Z,1003.57
2018-02-15T06:02:45.878Z,1003.57
2018-02-15T06:03:45.851Z,1003.54
2018-02-15T06:04:45.802Z,1003.50
2018-02-15T06:05:45.902Z,1003.46
2018-02-15T06:06:45.834Z,1003.45
2018-02-15T06:07:45.869Z,1003.39
2018-02-15T06:08:45.932Z,1003.38
2018-02-15T06:09:45.962Z,1003.43
2018-02-15T06:10:45.965Z,1003.42
2018-02-15T06:11:45.911Z,1003.39
2018-02-15T06:12:45.892Z,1003.45
2018-02-15T06:13:45.893Z,1003.46
2018-02-15T06:14:45.928Z,1003.51
2018-02-15T06:15:45.956Z,1003.49
2018-02-15T06:16:45.869Z,1003.49
2018-02-15T06:17:45.867Z,1003.51
2018-02-15T06:18:45.942Z,1003.54
2018-02-15T06:19:45.938Z,1003.61
2018-02-15T06:20:45.870Z,1003.68
2018-02-15T06:21:45.868Z,1003.65
2018-02-15T06:22:45.950Z,1003.71
2018-02-15T06:23:45.872Z,1003.72
2018-02-15T06:24:45.941Z,1003.65
2018-02-15T06:25:45.872Z,1003.72
2018-02-15T06:26:45.933Z,1003.71
2018-02-15T06:27:45.933Z,1003.70
2018-02-15T06:28:45.934Z,1003.65
2018-02-15T06:29:45.935Z,1003.64
2018-02-15T06:30:45.931Z,1003.65
2018-02-15T06:31:45.905Z,1003.62
2018-02-15T06:32:45.860Z,1003.67
2018-02-15T06:33:45.903Z,1003.66
2018-02-15T06:34:45.943Z,1003.64
2018-02-15T06:35:45.833Z,1003.67
2018-02-15T06:36:45.933Z,1003.61
2018-02-15T06:37:45.976Z,1003.62
2018-02-15T06:38:45.948Z,1003.59
2018-02-15T06:39:45.920Z,1003.59
2018-02-15T06:40:45.982Z,1003.57
2018-02-15T06:41:45.930Z,1003.53
2018-02-15T06:42:45.977Z,1003.48
2018-02-15T06:43:45.976Z,1003.48
2018-02-15T06:44:45.973Z,1003.55
2018-02-15T06:45:45.850Z,1003.51
2018-02-15T06:46:45.883Z,1003.53
2018-02-15T06:47:45.863Z,1003.47
2018-02-15T06:48:45.956Z,1003.49
2018-02-15T06:49:45.930Z,1003.44
2018-02-15T06:50:45.960Z,1003.42
2018-02-15T06:51:45.886Z,1003.41
2018-02-15T06:52:45.963Z,1003.44
2018-02-15T06:53:45.960Z,1003.43
2018-02-15T06:54:45.964Z,1003.38
2018-02-15T06:55:45.893Z,1003.44
2018-02-15T06:56:45.919Z,1003.36
2018-02-15T06:57:45.967Z,1003.32
2018-02-15T06:58:45.903Z,1003.30
2018-02-15T06:59:45.990Z,1003.36
2018-02-15T07:00:45.963Z,1003.37
2018-02-15T07:01:45.993Z,1003.37
2018-02-15T07:02:45.935Z,1003.41
2018-02-15T07:03:45.923Z,1003.35
2018-02-15T07:04:45.936Z,1003.31
2018-02-15T07:05:45.943Z,1003.33
2018-02-15T07:06:46.005Z,1003.36
2018-02-15T07:07:46.001Z,1003.39
2018-02-15T07:08:45.871Z,1003.47
2018-02-15T07:09:45.967Z,1003.44
2018-02-15T07:10:45.997Z,1003.42
2018-02-15T07:11:45.994Z,1003.44
2018-02-15T07:12:45.998Z,1003.39
2018-02-15T07:13:45.933Z,1003.37
2018-02-15T07:14:45.992Z,1003.46
2018-02-15T07:15:45.875Z,1003.42
2018-02-15T07:16:45.903Z,1003.45
2018-02-15T07:17:45.969Z,1003.42
2018-02-15T07:18:45.905Z,1003.47
2018-02-15T07:19:45.979Z,1003.44
2018-02-15T07:20:45.902Z,1003.48
2018-02-15T07:21:45.908Z,1003.48
2018-02-15T07:22:45.910Z,1003.47
2018-02-15T07:23:45.855Z,1003.50
2018-02-15T07:24:45.911Z,1003.51
2018-02-15T07:25:45.979Z,1003.50
2018-02-15T07:26:45.975Z,1003.50
2018-02-15T07:27:46.039Z,1003.50
2018-02-15T07:28:45.938Z,1003.54
2018-02-15T07:29:45.951Z,1003.51
2018-02-15T07:30:45.880Z,1003.54
2018-02-15T07:31:45.942Z,1003.53
2018-02-15T07:32:46.002Z,1003.47
2018-02-15T07:33:45.979Z,1003.44
2018-02-15T07:34:45.979Z,1003.34
2018-02-15T07:35:45.881Z,1003.39
2018-02-15T07:36:45.916Z,1003.39
2018-02-15T07:37:45.916Z,1003.33
2018-02-15T07:38:45.990Z,1003.33
2018-02-15T07:39:45.917Z,1003.37
2018-02-15T07:40:45.987Z,1003.38
2018-02-15T07:41:45.920Z,1003.39
2018-02-15T07:42:45.991Z,1003.35
2018-02-15T07:43:45.989Z,1003.40
2018-02-15T07:44:45.924Z,1003.42
2018-02-15T07:45:45.885Z,1003.51
2018-02-15T07:46:46.013Z,1003.50
2018-02-15T07:47:45.985Z,1003.54
2018-02-15T07:48:45.866Z,1003.54
2018-02-15T07:49:45.978Z,1003.54
2018-02-15T07:50:45.906Z,1003.57
2018-02-15T07:51:45.980Z,1003.54
2018-02-15T07:52:45.939Z,1003.57
2018-02-15T07:53:45.979Z,1003.63
2018-02-15T07:54:45.896Z,1003.64
2018-02-15T07:55:45.934Z,1003.61
2018-02-15T07:56:45.946Z,1003.73
2018-02-15T07:57:45.900Z,1003.66
2018-02-15T07:58:45.849Z,1003.69
2018-02-15T07:59:45.853Z,1003.75
2018-02-15T08:00:45.854Z,1003.67
2018-02-15T08:01:45.852Z,1003.62
2018-02-15T08:02:45.946Z,1003.53
2018-02-15T08:03:45.904Z,1003.57
2018-02-15T08:04:45.857Z,1003.53
2018-02-15T08:05:45.949Z,1003.53
2018-02-15T08:06:46.034Z,1003.46
2018-02-15T08:07:46.034Z,1003.52
2018-02-15T08:08:45.968Z,1003.57
2018-02-15T08:09:45.960Z,1003.52
2018-02-15T08:10:45.980Z,1003.53
2018-02-15T08:11:46.002Z,1003.42
2018-02-15T08:12:46.045Z,1003.53
2018-02-15T08:13:45.974Z,1003.53
2018-02-15T08:14:45.929Z,1003.49
2018-02-15T08:15:45.925Z,1003.50
2018-02-15T08:16:46.037Z,1003.43
2018-02-15T08:17:45.998Z,1003.38
2018-02-15T08:18:45.976Z,1003.43
2018-02-15T08:19:46.044Z,1003.45
2018-02-15T08:20:46.005Z,1003.40
2018-02-15T08:21:46.066Z,1003.39
2018-02-15T08:22:46.033Z,1003.41
2018-02-15T08:23:45.967Z,1003.35
2018-02-15T08:24:45.987Z,1003.47
2018-02-15T08:25:45.977Z,1003.47
2018-02-15T08:26:46.074Z,1003.44
2018-02-15T08:27:45.985Z,1003.38
2018-02-15T08:28:45.916Z,1003.41
2018-02-15T08:29:46.009Z,1003.44
2018-02-15T08:30:45.988Z,1003.47
2018-02-15T08:31:45.990Z,1003.40
2018-02-15T08:32:45.937Z,1003.46
2018-02-15T08:33:46.031Z,1003.37
2018-02-15T08:34:45.992Z,1003.39
2018-02-15T08:35:46.054Z,1003.44
2018-02-15T08:36:45.953Z,1003.37
2018-02-15T08:37:46.023Z,1003.41
2018-02-15T08:38:45.947Z,1003.42
2018-02-15T08:39:45.961Z,1003.39
2018-02-15T08:40:45.957Z,1003.42
2018-02-15T08:41:46.028Z,1003.41
2018-02-15T08:42:46.026Z,1003.42
2018-02-15T08:43:46.023Z,1003.42
2018-02-15T08:44:45.957Z,1003.42
2018-02-15T08:45:45.950Z,1003.38
2018-02-15T08:46:46.026Z,1003.43
2018-02-15T08:47:46.027Z,1003.49
2018-02-15T08:48:45.959Z,1003.45
2018-02-15T08:49:46.028Z,1003.41
2018-02-15T08:50:46.014Z,1003.43
2018-02-15T08:51:46.020Z,1003.38
2018-02-15T08:52:45.963Z,1003.37
2018-02-15T08:53:46.029Z,1003.37
2018-02-15T08:54:46.028Z,1003.33
2018-02-15T08:55:46.064Z,1003.33
2018-02-15T08:56:45.993Z,1003.25
2018-02-15T08:57:46.062Z,1003.30
2018-02-15T08:58:45.988Z,1003.34
2018-02-15T08:59:46.064Z,1003.33
2018-02-15T09:00:45.990Z,1003.28
2018-02-15T09:01:46.058Z,1003.30
2018-02-15T09:02:46.030Z,1003.37
2018-02-15T09:03:46.029Z,1003.30
2018-02-15T09:04:46.071Z,1003.28
2018-02-15T09:05:46.006Z,1003.33
2018-02-15T09:06:45.954Z,1003.21
2018-02-15T09:07:46.063Z,1003.22
2018-02-15T09:08:45.974Z,1003.19
2018-02-15T09:09:46.036Z,1003.27
2018-02-15T09:10:46.077Z,1003.28
2018-02-15T09:11:45.959Z,1003.24
2018-02-15T09:12:45.958Z,1003.30
2018-02-15T09:13:45.997Z,1003.27
2018-02-15T09:14:45.942Z,1003.28
2018-02-15T09:15:46.081Z,1003.25
2018-02-15T09:16:46.042Z,1003.16
2018-02-15T09:17:45.981Z,1003.13
2018-02-15T09:18:46.045Z,1003.17
2018-02-15T09:19:46.051Z,1003.21
2018-02-15T09:20:46.048Z,1003.16
2018-02-15T09:21:45.978Z,1003.20
2018-02-15T09:22:46.061Z,1003.22
2018-02-15T09:23:46.043Z,1003.23
2018-02-15T09:24:45.980Z,1003.25
2018-02-15T09:25:45.936Z,1003.22
2018-02-15T09:26:46.082Z,1003.25
2018-02-15T09:27:46.048Z,1003.25
2018-02-15T09:28:45.987Z,1003.22
2018-02-15T09:29:45.981Z,1003.23
2018-02-15T09:30:45.981Z,1003.26
2018-02-15T09:31:46.053Z,1003.29
2018-02-15T09:32:46.050Z,1003.34
2018-02-15T09:33:45.987Z,1003.30
2018-02-15T09:34:45.985Z,1003.33
2018-02-15T09:35:46.055Z,1003.28
2018-02-15T09:36:45.961Z,1003.32
2018-02-15T09:37:46.052Z,1003.29
2018-02-15T09:38:46.016Z,1003.26
2018-02-15T09:39:46.090Z,1003.29
2018-02-15T09:40:46.080Z,1003.28
2018-02-15T09:41:45.962Z,1003.23
2018-02-15T09:42:46.036Z,1003.27
2018-02-15T09:43:46.037Z,1003.29
2018-02-15T09:44:46.093Z,1003.30
2018-02-15T09:45:46.044Z,1003.25
2018-02-15T09:46:46.037Z,1003.29
2018-02-15T09:47:45.981Z,1003.28
2018-02-15T09:48:45.963Z,1003.29
2018-02-15T09:49:46.099Z,1003.29
2018-02-15T09:50:46.028Z,1003.24
2018-02-15T09:51:46.045Z,1003.24
2018-02-15T09:52:46.031Z,1003.22
2018-02-15T09:53:46.098Z,1003.16
2018-02-15T09:54:46.026Z,1003.19
2018-02-15T09:55:46.096Z,1003.08
2018-02-15T09:56:46.105Z,1003.07
2018-02-15T09:57:45.973Z,1003.06
2018-02-15T09:58:46.089Z,1003.06
2018-02-15T09:59:46.064Z,1003.02
2018-02-15T10:00:46.068Z,1002.90
2018-02-15T10:01:46.069Z,1002.95
2018-02-15T10:02:46.068Z,1002.90
2018-02-15T10:03:46.099Z,1002.98
2018-02-15T10:04:46.166Z,1002.97
2018-02-15T10:05:46.074Z,1002.94
2018-02-15T10:06:46.004Z,1002.98
2018-02-15T10:07:46.075Z,1002.99
2018-02-15T10:08:46.005Z,1003.07
2018-02-15T10:09:46.074Z,1003.03
2018-02-15T10:10:46.007Z,1003.09
2018-02-15T10:11:46.079Z,1003.16
2018-02-15T10:12:46.011Z,1003.09
2018-02-15T10:13:46.013Z,1003.04
2018-02-15T10:14:46.009Z,1003.04
2018-02-15T10:15:46.083Z,1002.98
2018-02-15T10:16:46.078Z,1003.04
2018-02-15T10:17:46.075Z,1002.96
2018-02-15T10:18:46.099Z,1002.93
2018-02-15T10:19:46.077Z,1002.85
2018-02-15T10:20:46.118Z,1002.88
2018-02-15T10:21:46.116Z,1002.86
2018-02-15T10:22:46.079Z,1002.90
2018-02-15T10:23:45.981Z,1002.88
2018-02-15T10:24:46.089Z,1002.85
2018-02-15T10:25:45.988Z,1002.77
2018-02-15T10:26:46.031Z,1002.82
2018-02-15T10:27:45.992Z,1002.73
2018-02-15T10:28:46.070Z,1002.74
2018-02-15T10:29:46.006Z,1002.70
2018-02-15T10:30:45.989Z,1002.71
2018-02-15T10:31:46.081Z,1002.64
2018-02-15T10:32:46.013Z,1002.70
2018-02-15T10:33:46.082Z,1002.64
2018-02-15T10:34:46.074Z,1002.66
2018-02-15T10:35:46.008Z,1002.62
2018-02-15T10:36:46.086Z,1002.71
2018-02-15T10:37:46.132Z,1002.72
2018-02-15T10:38:46.031Z,1002.77
2018-02-15T10:39:46.126Z,1002.71
2018-02-15T10:40:46.048Z,1002.67
2018-02-15T10:41:46.059Z,1002.72
2018-02-15T10:42:45.999Z,1002.68
2018-02-15T10:43:46.128Z,1002.76
2018-02-15T10:44:46.123Z,1002.79
2018-02-15T10:45:46.064Z,1002.79
2018-02-15T10:46:46.099Z,1002.79
2018-02-15T10:47:46.099Z,1002.74
2018-02-15T10:48:46.099Z,1002.69
2018-02-15T10:49:46.106Z,1002.71
2018-02-15T10:50:46.032Z,1002.68
2018-02-15T10:51:46.098Z,1002.68
2018-02-15T10:52:46.103Z,1002.69
2018-02-15T10:53:46.102Z,1002.73
2018-02-15T10:54:46.045Z,1002.71
2018-02-15T10:55:46.103Z,1002.72
2018-02-15T10:56:46.080Z,1002.71
2018-02-15T10:57:46.006Z,1002.76
2018-02-15T10:58:46.106Z,1002.67
2018-02-15T10:59:46.064Z,1002.75
2018-02-15T11:00:46.065Z,1002.71
2018-02-15T11:01:46.086Z,1002.75
2018-02-15T11:02:46.077Z,1002.74
2018-02-15T11:03:46.071Z,1002.68
2018-02-15T11:04:46.106Z,1002.68
2018-02-15T11:05:46.118Z,1002.67
2018-02-15T11:06:46.108Z,1002.62
2018-02-15T11:07:46.139Z,1002.71
2018-02-15T11:08:46.075Z,1002.71
2018-02-15T11:09:46.035Z,1002.73
2018-02-15T11:10:46.034Z,1002.75
2018-02-15T11:11:46.139Z,1002.73
2018-02-15T11:12:46.108Z,1002.70
2018-02-15T11:13:46.141Z,1002.71
2018-02-15T11:14:46.117Z,1002.79
2018-02-15T11:15:46.102Z,1002.76
2018-02-15T11:16:46.054Z,1002.76
2018-02-15T11:17:46.048Z,1002.73
2018-02-15T11:18:45.981Z,1002.76
2018-02-15T11:19:46.113Z,1002.79
2018-02-15T11:20:46.095Z,1002.83
2018-02-15T11:21:46.013Z,1002.80
2018-02-15T11:22:46.051Z,1002.84
2018-02-15T11:23:46.057Z,1002.73
2018-02-15T11:24:46.018Z,1002.73
2018-02-15T11:25:45.983Z,1002.75
2018-02-15T11:26:46.088Z,1002.69
2018-02-15T11:27:46.165Z,1002.71
2018-02-15T11:28:46.130Z,1002.56
2018-02-15T11:29:46.129Z,1002.57
2018-02-15T11:30:46.088Z,1002.53
2018-02-15T11:31:46.082Z,1002.57
2018-02-15T11:32:46.124Z,1002.61
2018-02-15T11:33:46.159Z,1002.55
2018-02-15T11:34:46.105Z,1002.55
2018-02-15T11:35:46.159Z,1002.59
2018-02-15T11:36:46.123Z,1002.58
2018-02-15T11:37:46.125Z,1002.58
2018-02-15T11:38:46.107Z,1002.50
2018-02-15T11:39:46.126Z,1002.54
2018-02-15T11:40:46.130Z,1002.59
2018-02-15T11:41:46.030Z,1002.58
2018-02-15T11:42:46.068Z,1002.58
2018-02-15T11:43:46.157Z,1002.58
2018-02-15T11:44:46.057Z,1002.52
2018-02-15T11:45:46.034Z,1002.55
2018-02-15T11:46:46.130Z,1002.53
2018-02-15T11:47:46.139Z,1002.51
2018-02-15T11:48:46.134Z,1002.54
2018-02-15T11:49:46.092Z,1002.52
2018-02-15T11:50:46.162Z,1002.53
2018-02-15T11:52:46.178Z,1002.61
2018-02-15T11:53:46.134Z,1002.61
2018-02-15T11:54:46.176Z,1002.61
2018-02-15T11:55:46.113Z,1002.64
2018-02-15T11:56:46.108Z,1002.64
2018-02-15T11:57:46.078Z,1002.63
2018-02-15T11:58:46.183Z,1002.66
2018-02-15T11:59:46.062Z,1002.69
2018-02-15T12:00:46.106Z,1002.66
2018-02-15T12:01:46.066Z,1002.75
2018-02-15T12:02:46.162Z,1002.68
2018-02-15T12:03:46.184Z,1002.73
2018-02-15T12:04:46.071Z,1002.70
2018-02-15T12:05:46.173Z,1002.79
2018-02-15T12:06:46.179Z,1002.75